createdAt,value
2022-09-23T00:00:05.788Z,71.02
2022-09-23T00:02:39.120Z,70.75
2022-09-23T00:05:16.117Z,70.70
2022-09-23T00:07:52.813Z,70.85
2022-09-23T00:10:31.162Z,70.82
2022-09-23T00:13:04.043Z,70.78
2022-09-23T00:15:40.407Z,70.68
2022-09-23T00:18:13.210Z,70.99
2022-09-23T00:20:46.088Z,70.84
2022-09-23T00:23:20.306Z,70.97
2022-09-23T00:25:57.953Z,71.11
2022-09-23T00:28:31.522Z,70.60
2022-09-23T00:31:05.589Z,70.75
2022-09-23T00:33:38.869Z,70.84
2022-09-23T00:36:17.340Z,71.02
2022-09-23T00:38:51.624Z,70.89
2022-09-23T00:41:25.384Z,70.79
2022-09-23T00:44:00.491Z,70.66
2022-09-23T00:46:38.927Z,71.22
2022-09-23T00:49:21.798Z,71.18
2022-09-23T00:51:59.758Z,70.82
2022-09-23T00:54:34.446Z,70.99
2022-09-23T00:57:07.658Z,71.23
2022-09-23T00:59:40.507Z,71.24
2022-09-23T01:02:15.372Z,70.95
2022-09-23T01:04:50.360Z,70.76
2022-09-23T01:07:23.198Z,70.87
2022-09-23T01:09:58.707Z,71.22
2022-09-23T01:12:46.183Z,71.38
2022-09-23T01:15:23.073Z,71.29
2022-09-23T01:18:10.887Z,71.25
2022-09-23T01:20:59.423Z,70.77
2022-09-23T01:24:14.726Z,70.90
2022-09-23T01:27:02.062Z,70.75
2022-09-23T01:30:07.536Z,70.85
2022-09-23T01:32:57.301Z,71.05
2022-09-23T01:35:40.341Z,70.81
2022-09-23T01:38:22.953Z,70.95
2022-09-23T01:41:07.069Z,71.03
2022-09-23T01:43:48.880Z,70.71
2022-09-23T01:46:28.041Z,71.04
2022-09-23T01:49:09.826Z,70.66
2022-09-23T01:51:47.188Z,70.50
2022-09-23T01:54:24.539Z,70.74
2022-09-23T01:57:01.926Z,70.68
2022-09-23T01:59:38.057Z,70.92
2022-09-23T02:02:16.245Z,70.58
2022-09-23T02:04:54.684Z,70.99
2022-09-23T02:07:32.833Z,70.89
2022-09-23T02:10:13.120Z,70.94
2022-09-23T02:12:49.918Z,70.93
2022-09-23T02:15:26.374Z,70.88
2022-09-23T02:18:05.334Z,71.14
2022-09-23T02:20:41.190Z,71.01
2022-09-23T02:23:20.792Z,71.01
2022-09-23T02:26:03.859Z,71.09
2022-09-23T02:28:48.099Z,71.14
2022-09-23T02:31:33.872Z,71.27
2022-09-23T02:34:22.124Z,71.00
2022-09-23T02:37:09.935Z,71.53
2022-09-23T02:39:54.000Z,71.34
2022-09-23T02:42:34.809Z,71.11
2022-09-23T02:45:08.129Z,71.17
2022-09-23T02:47:45.259Z,71.06
2022-09-23T02:50:19.353Z,71.01
2022-09-23T02:52:55.773Z,71.16
2022-09-23T02:55:32.434Z,71.34
2022-09-23T02:58:06.636Z,71.43
2022-09-23T03:00:51.213Z,71.31
2022-09-23T03:03:41.090Z,70.85
2022-09-23T03:06:33.134Z,70.96
2022-09-23T03:09:11.035Z,71.03
2022-09-23T03:11:53.446Z,71.13
2022-09-23T03:14:37.729Z,70.84
2022-09-23T03:17:20.096Z,70.94
2022-09-23T03:19:58.632Z,71.47
2022-09-23T03:22:37.357Z,71.34
2022-09-23T03:25:18.407Z,71.35
2022-09-23T03:27:52.605Z,70.95
2022-09-23T03:30:27.781Z,71.40
2022-09-23T03:33:03.303Z,71.54
2022-09-23T03:35:57.956Z,71.75
2022-09-23T03:38:36.596Z,71.82
2022-09-23T03:41:16.742Z,71.19
2022-09-23T03:43:57.691Z,71.13
2022-09-23T03:46:36.313Z,71.24
2022-09-23T03:49:15.894Z,71.32
2022-09-23T03:51:49.316Z,71.41
2022-09-23T03:54:22.494Z,71.32
2022-09-23T03:56:57.701Z,71.36
2022-09-23T03:59:31.617Z,71.11
2022-09-23T04:02:04.596Z,71.03
2022-09-23T04:04:38.980Z,71.07
2022-09-23T04:07:13.023Z,71.18
2022-09-23T04:09:46.152Z,71.66
2022-09-23T04:12:20.417Z,71.57
2022-09-23T04:14:53.505Z,71.13
2022-09-23T04:17:26.292Z,71.24
2022-09-23T04:19:59.156Z,71.21
2022-09-23T04:22:32.509Z,71.66
2022-09-23T04:25:06.067Z,71.25
2022-09-23T04:27:40.221Z,71.36
2022-09-23T04:30:16.126Z,71.46
2022-09-23T04:32:48.960Z,71.18
2022-09-23T04:35:22.293Z,71.53
2022-09-23T04:37:55.367Z,71.42
2022-09-23T04:40:28.416Z,71.15
2022-09-23T04:43:02.680Z,71.27
2022-09-23T04:45:35.754Z,71.31
2022-09-23T04:48:10.427Z,71.63
2022-09-23T04:50:43.247Z,71.32
2022-09-23T04:53:17.291Z,71.16
2022-09-23T04:55:52.384Z,71.67
2022-09-23T04:58:26.673Z,71.61
2022-09-23T05:01:04.351Z,71.79
2022-09-23T05:03:38.025Z,71.68
2022-09-23T05:06:13.816Z,71.43
2022-09-23T05:08:49.010Z,71.61
2022-09-23T05:11:22.514Z,71.82
2022-09-23T05:13:56.864Z,72.12
2022-09-23T05:16:30.268Z,71.57
2022-09-23T05:19:04.050Z,71.67
2022-09-23T05:21:38.957Z,72.08
2022-09-23T05:24:13.312Z,72.02
2022-09-23T05:26:46.325Z,71.58
2022-09-23T05:29:20.740Z,71.96
2022-09-23T05:31:56.321Z,72.17
2022-09-23T05:34:29.478Z,72.46
2022-09-23T05:37:03.819Z,71.98
2022-09-23T05:39:37.344Z,72.66
2022-09-23T05:42:12.499Z,72.83
2022-09-23T05:44:47.212Z,72.83
2022-09-23T05:47:20.007Z,73.18
2022-09-23T05:49:59.991Z,73.11
2022-09-23T05:52:34.862Z,73.14
2022-09-23T05:55:08.973Z,72.88
2022-09-23T05:57:41.960Z,72.88
2022-09-23T06:00:17.555Z,72.89
2022-09-23T06:02:50.450Z,73.14
2022-09-23T06:05:23.311Z,72.72
2022-09-23T06:07:56.823Z,73.40
2022-09-23T06:10:29.848Z,73.26
2022-09-23T06:13:03.134Z,73.13
2022-09-23T06:15:38.218Z,73.84
2022-09-23T06:18:11.588Z,74.06
2022-09-23T06:20:45.761Z,73.81
2022-09-23T06:23:18.905Z,73.91
2022-09-23T06:25:52.586Z,74.13
2022-09-23T06:28:25.507Z,74.34
2022-09-23T06:31:00.356Z,74.86
2022-09-23T06:33:36.961Z,74.53
2022-09-23T06:36:11.433Z,74.90
2022-09-23T06:38:45.302Z,74.89
2022-09-23T06:41:20.632Z,75.03
2022-09-23T06:43:53.498Z,74.67
2022-09-23T06:46:28.088Z,74.76
2022-09-23T06:49:01.161Z,74.53
2022-09-23T06:51:34.466Z,74.49
2022-09-23T06:54:07.817Z,74.43
2022-09-23T06:56:41.389Z,75.20
2022-09-23T06:59:18.689Z,74.88
2022-09-23T07:01:53.160Z,74.92
2022-09-23T07:04:29.381Z,74.67
2022-09-23T07:07:03.758Z,74.79
2022-09-23T07:09:39.704Z,74.20
2022-09-23T07:12:13.206Z,73.81
2022-09-23T07:14:46.105Z,73.48
2022-09-23T07:17:20.770Z,72.78
2022-09-23T07:19:55.023Z,71.90
2022-09-23T07:22:28.689Z,71.72
2022-09-23T07:25:01.655Z,71.05
2022-09-23T07:27:34.520Z,70.78
2022-09-23T07:30:18.654Z,70.55
2022-09-23T07:32:55.725Z,70.20
2022-09-23T07:35:28.683Z,69.91
2022-09-23T07:38:01.806Z,69.58
2022-09-23T07:40:34.915Z,69.22
2022-09-23T07:43:08.264Z,69.05
2022-09-23T07:45:43.768Z,68.83
2022-09-23T07:48:21.257Z,68.45
2022-09-23T07:50:54.089Z,68.84
2022-09-23T07:53:29.777Z,69.16
2022-09-23T07:56:04.630Z,69.06
2022-09-23T07:58:37.460Z,68.72
2022-09-23T08:01:12.164Z,68.42
2022-09-23T08:03:46.700Z,68.36
2022-09-23T08:06:19.570Z,68.21
2022-09-23T08:08:53.445Z,67.94
2022-09-23T08:11:27.737Z,68.10
2022-09-23T08:14:00.553Z,67.80
2022-09-23T08:16:33.370Z,67.47
2022-09-23T08:19:07.896Z,67.06
2022-09-23T08:21:41.883Z,66.34
2022-09-23T08:24:16.499Z,65.97
2022-09-23T08:26:50.088Z,65.69
2022-09-23T08:29:24.935Z,65.14
2022-09-23T08:31:58.204Z,65.10
2022-09-23T08:34:32.395Z,64.80
2022-09-23T08:37:05.374Z,64.20
2022-09-23T08:39:38.189Z,64.04
2022-09-23T08:42:18.616Z,63.79
2022-09-23T08:44:55.424Z,63.24
2022-09-23T08:47:44.462Z,63.14
2022-09-23T08:50:22.168Z,63.04
2022-09-23T08:52:58.840Z,63.05
2022-09-23T08:55:37.089Z,62.84
2022-09-23T08:58:35.262Z,62.76
2022-09-23T09:01:16.919Z,62.81
2022-09-23T09:03:53.796Z,62.93
2022-09-23T09:06:45.641Z,62.65
2022-09-23T09:09:29.169Z,63.01
2022-09-23T09:12:08.331Z,63.20
2022-09-23T09:14:49.144Z,62.99
2022-09-23T09:17:35.188Z,62.93
2022-09-23T09:20:23.286Z,62.91
2022-09-23T09:23:00.581Z,63.50
2022-09-23T09:25:45.098Z,63.32
2022-09-23T09:28:22.071Z,63.58
2022-09-23T09:30:58.553Z,63.49
2022-09-23T09:33:40.303Z,62.55
2022-09-23T09:36:24.897Z,64.25
2022-09-23T09:38:59.866Z,62.65
2022-09-23T09:41:32.711Z,62.28
2022-09-23T09:44:18.337Z,62.23
2022-09-23T09:46:56.808Z,62.30
2022-09-23T09:49:40.191Z,62.25
2022-09-23T09:52:23.609Z,62.11
2022-09-23T09:55:18.912Z,63.05
2022-09-23T09:57:56.139Z,62.99
2022-09-23T10:00:43.951Z,62.65
2022-09-23T10:03:38.537Z,62.42
2022-09-23T10:06:17.369Z,62.78
2022-09-23T10:09:10.428Z,63.10
2022-09-23T10:12:03.694Z,62.90
2022-09-23T10:14:36.502Z,62.51
2022-09-23T10:17:16.582Z,61.61
2022-09-23T10:19:52.484Z,62.05
2022-09-23T10:22:30.022Z,60.72
2022-09-23T10:25:07.957Z,60.78
2022-09-23T10:27:42.450Z,59.64
2022-09-23T10:30:22.858Z,59.41
2022-09-23T10:32:57.000Z,59.73
2022-09-23T10:35:34.547Z,59.63
2022-09-23T10:38:11.364Z,58.18
2022-09-23T10:41:02.837Z,58.76
2022-09-23T10:44:12.922Z,58.21
2022-09-23T10:46:54.412Z,58.23
2022-09-23T10:49:44.912Z,57.98
2022-09-23T10:52:51.141Z,58.04
2022-09-23T10:55:41.045Z,57.18
2022-09-23T10:58:32.609Z,57.58
2022-09-23T11:01:15.461Z,58.19
2022-09-23T11:04:14.564Z,58.06
2022-09-23T11:07:01.821Z,57.77
2022-09-23T11:09:44.306Z,57.60
2022-09-23T11:15:12.670Z,56.98
2022-09-23T11:18:23.704Z,57.64
2022-09-23T11:21:10.205Z,57.49
2022-09-23T11:24:15.844Z,57.10
2022-09-23T11:26:54.692Z,55.78
2022-09-23T11:29:56.423Z,56.13
2022-09-23T11:33:21.047Z,55.41
2022-09-23T11:35:59.082Z,55.68
2022-09-23T11:38:39.948Z,55.29
2022-09-23T11:41:20.760Z,55.04
2022-09-23T11:43:59.542Z,55.19
2022-09-23T11:46:37.326Z,55.10
2022-09-23T11:49:17.829Z,54.85
2022-09-23T11:52:03.647Z,55.20
2022-09-23T11:54:50.723Z,55.21
2022-09-23T11:57:34.384Z,54.88
2022-09-23T12:00:19.329Z,55.08
2022-09-23T12:03:06.280Z,55.36
2022-09-23T12:05:45.919Z,55.73
2022-09-23T12:08:28.632Z,54.91
2022-09-23T12:11:09.606Z,55.65
2022-09-23T12:13:52.117Z,56.62
2022-09-23T12:16:38.992Z,56.31
2022-09-23T12:19:26.976Z,56.53
2022-09-23T12:22:15.295Z,56.11
2022-09-23T12:24:56.286Z,57.13
2022-09-23T12:27:45.683Z,57.36
2022-09-23T12:30:21.994Z,56.48
2022-09-23T12:33:08.988Z,55.99
2022-09-23T12:35:45.037Z,56.25
2022-09-23T12:38:22.412Z,56.25
2022-09-23T12:40:56.996Z,56.63
2022-09-23T12:43:33.533Z,56.23
2022-09-23T12:46:20.329Z,56.11
2022-09-23T12:49:02.008Z,56.42
2022-09-23T12:51:35.584Z,57.45
2022-09-23T12:54:24.536Z,56.92
2022-09-23T12:57:06.099Z,56.00
2022-09-23T12:59:57.579Z,56.95
2022-09-23T13:02:36.254Z,56.16
2022-09-23T13:05:39.083Z,55.84
2022-09-23T13:08:17.034Z,56.50
2022-09-23T13:10:54.334Z,56.64
2022-09-23T13:13:32.441Z,56.42
2022-09-23T13:16:15.938Z,55.50
2022-09-23T13:18:54.208Z,55.90
2022-09-23T13:22:00.697Z,56.29
2022-09-23T13:24:40.761Z,56.47
2022-09-23T13:27:23.663Z,55.98
2022-09-23T13:30:03.785Z,56.38
2022-09-23T13:32:45.964Z,56.73
2022-09-23T13:35:27.379Z,56.47
2022-09-23T13:38:00.350Z,56.21
2022-09-23T13:40:35.357Z,56.57
2022-09-23T13:43:16.217Z,56.40
2022-09-23T13:45:49.150Z,56.40
2022-09-23T13:48:26.896Z,55.62
2022-09-23T13:51:11.611Z,55.85
2022-09-23T13:53:52.350Z,56.93
2022-09-23T13:56:27.881Z,56.55
2022-09-23T13:59:24.244Z,55.96
2022-09-23T14:02:11.736Z,55.58
2022-09-23T14:04:48.780Z,56.50
2022-09-23T14:07:21.627Z,56.42
2022-09-23T14:09:57.274Z,55.96
2022-09-23T14:12:30.574Z,55.97
2022-09-23T14:15:03.481Z,56.00
2022-09-23T14:17:39.316Z,55.39
2022-09-23T14:20:17.378Z,55.05
2022-09-23T14:23:07.105Z,54.82
2022-09-23T14:25:48.088Z,55.12
2022-09-23T14:28:26.523Z,55.01
2022-09-23T14:31:03.757Z,54.79
2022-09-23T14:33:41.803Z,54.75
2022-09-23T14:36:36.246Z,55.01
2022-09-23T14:39:13.362Z,54.77
2022-09-23T14:41:47.098Z,55.19
2022-09-23T14:44:23.622Z,54.88
2022-09-23T14:47:00.737Z,54.67
2022-09-23T14:49:33.694Z,55.46
2022-09-23T14:52:08.457Z,54.91
2022-09-23T14:54:45.433Z,55.00
2022-09-23T14:57:29.483Z,54.89
2022-09-23T15:00:09.979Z,55.04
2022-09-23T15:02:45.416Z,55.14
2022-09-23T15:05:23.347Z,54.98
2022-09-23T15:08:02.868Z,55.47
2022-09-23T15:10:39.342Z,54.99
2022-09-23T15:13:17.092Z,55.11
2022-09-23T15:15:53.853Z,55.52
2022-09-23T15:18:30.360Z,55.51
2022-09-23T15:21:09.957Z,55.41
2022-09-23T15:23:49.285Z,55.39
2022-09-23T15:26:24.001Z,55.50
2022-09-23T15:28:58.429Z,55.96
2022-09-23T15:31:31.533Z,56.29
2022-09-23T15:34:05.624Z,56.49
2022-09-23T15:36:38.711Z,56.49
2022-09-23T15:39:13.854Z,56.17
2022-09-23T15:41:46.733Z,55.87
2022-09-23T15:44:21.726Z,55.75
2022-09-23T15:46:55.918Z,55.78
2022-09-23T15:49:32.858Z,55.54
2022-09-23T15:52:08.443Z,56.04
2022-09-23T15:54:43.360Z,55.83
2022-09-23T15:57:16.154Z,56.16
2022-09-23T15:59:48.925Z,56.12
2022-09-23T16:02:24.988Z,56.17
2022-09-23T16:04:57.868Z,56.41
2022-09-23T16:07:30.685Z,56.55
2022-09-23T16:10:05.064Z,56.72
2022-09-23T16:12:38.206Z,56.72
2022-09-23T16:15:14.391Z,56.46
2022-09-23T16:17:47.277Z,56.85
2022-09-23T16:20:20.111Z,57.09
2022-09-23T16:22:55.400Z,56.97
2022-09-23T16:25:31.941Z,57.54
2022-09-23T16:28:05.731Z,57.69
2022-09-23T16:30:38.514Z,57.95
2022-09-23T16:33:11.352Z,58.30
2022-09-23T16:35:44.236Z,58.35
2022-09-23T16:38:17.204Z,58.26
2022-09-23T16:40:51.558Z,58.79
2022-09-23T16:43:24.378Z,59.80
2022-09-23T16:45:57.746Z,60.36
2022-09-23T16:48:30.703Z,60.87
2022-09-23T16:51:04.815Z,61.36
2022-09-23T16:53:39.356Z,61.33
2022-09-23T16:56:13.588Z,61.43
2022-09-23T16:58:46.853Z,61.29
2022-09-23T17:01:39.685Z,61.09
2022-09-23T17:04:13.519Z,60.73
2022-09-23T17:06:50.370Z,60.84
2022-09-23T17:09:25.688Z,61.21
2022-09-23T17:12:10.592Z,61.50
2022-09-23T17:14:43.788Z,61.92
2022-09-23T17:17:16.598Z,61.88
2022-09-23T17:19:49.580Z,62.13
2022-09-23T17:22:22.408Z,62.39
2022-09-23T17:24:55.674Z,62.26
2022-09-23T17:27:30.954Z,62.19
2022-09-23T17:30:03.873Z,62.23
2022-09-23T17:32:36.650Z,62.49
2022-09-23T17:35:10.571Z,62.71
2022-09-23T17:37:43.407Z,63.27
2022-09-23T17:40:16.432Z,63.69
2022-09-23T17:42:51.718Z,63.96
2022-09-23T17:45:24.677Z,64.22
2022-09-23T17:47:57.597Z,64.41
2022-09-23T17:50:31.279Z,64.66
2022-09-23T17:53:05.115Z,64.87
2022-09-23T17:55:37.957Z,65.03
2022-09-23T17:58:12.246Z,65.23
2022-09-23T18:00:47.046Z,65.38
2022-09-23T18:03:19.896Z,65.41
2022-09-23T18:05:53.244Z,65.60
2022-09-23T18:08:26.067Z,65.79
2022-09-23T18:10:58.926Z,65.64
2022-09-23T18:13:33.089Z,66.03
2022-09-23T18:16:06.193Z,66.10
2022-09-23T18:18:39.252Z,66.13
2022-09-23T18:21:12.349Z,66.13
2022-09-23T18:23:45.218Z,66.08
2022-09-23T18:26:19.560Z,66.20
2022-09-23T18:28:57.225Z,65.82
2022-09-23T18:31:34.411Z,65.83
2022-09-23T18:34:09.384Z,65.90
2022-09-23T18:36:42.457Z,65.85
2022-09-23T18:39:17.143Z,65.85
2022-09-23T18:41:50.765Z,66.18
2022-09-23T18:44:24.981Z,66.21
2022-09-23T18:46:57.790Z,66.48
2022-09-23T18:49:48.334Z,66.51
2022-09-23T18:52:21.979Z,66.54
2022-09-23T18:54:55.131Z,66.69
2022-09-23T18:57:27.997Z,66.80
2022-09-23T19:00:02.312Z,66.65
2022-09-23T19:02:35.239Z,66.43
2022-09-23T19:05:08.992Z,66.37
2022-09-23T19:07:42.270Z,66.24
2022-09-23T19:10:15.179Z,66.39
2022-09-23T19:12:47.992Z,66.48
2022-09-23T19:15:22.199Z,66.60
2022-09-23T19:17:55.144Z,66.63
2022-09-23T19:20:29.178Z,66.85
2022-09-23T19:23:02.350Z,66.91
2022-09-23T19:25:37.045Z,67.13
2022-09-23T19:28:10.416Z,67.27
2022-09-23T19:30:44.760Z,66.85
2022-09-23T19:33:17.728Z,66.99
2022-09-23T19:35:52.052Z,67.19
2022-09-23T19:38:25.422Z,66.98
2022-09-23T19:40:58.292Z,67.19
2022-09-23T19:43:31.152Z,67.07
2022-09-23T19:46:06.804Z,66.88
2022-09-23T19:48:40.344Z,67.19
2022-09-23T19:51:13.117Z,67.43
2022-09-23T19:53:46.655Z,67.45
2022-09-23T19:56:21.667Z,67.58
2022-09-23T19:58:55.775Z,67.51
2022-09-23T20:01:32.100Z,67.50
2022-09-23T20:04:05.699Z,67.60
2022-09-23T20:06:39.442Z,67.39
2022-09-23T20:09:12.311Z,67.27
2022-09-23T20:11:45.090Z,67.64
2022-09-23T20:14:19.844Z,67.63
2022-09-23T20:16:54.928Z,67.68
2022-09-23T20:19:27.770Z,67.67
2022-09-23T20:22:17.965Z,67.54
2022-09-23T20:24:50.874Z,67.66
2022-09-23T20:27:23.078Z,67.64
2022-09-23T20:29:57.412Z,67.75
2022-09-23T20:32:31.797Z,68.06
2022-09-23T20:35:05.901Z,67.95
2022-09-23T20:37:38.770Z,68.20
2022-09-23T20:40:11.975Z,68.02
2022-09-23T20:42:44.804Z,68.16
2022-09-23T20:45:17.774Z,68.53
2022-09-23T20:47:52.025Z,68.42
2022-09-23T20:50:25.178Z,68.67
2022-09-23T20:52:58.003Z,68.52
2022-09-23T20:55:32.051Z,68.71
2022-09-23T20:58:05.063Z,68.76
2022-09-23T21:00:37.993Z,68.81
2022-09-23T21:03:12.514Z,68.86
2022-09-23T21:05:45.649Z,69.21
2022-09-23T21:08:18.446Z,69.11
2022-09-23T21:10:55.238Z,68.89
2022-09-23T21:13:28.007Z,68.96
2022-09-23T21:16:03.903Z,68.67
2022-09-23T21:18:38.694Z,68.62
2022-09-23T21:21:14.191Z,68.61
2022-09-23T21:23:48.194Z,68.40
2022-09-23T21:26:23.374Z,68.16
2022-09-23T21:28:58.905Z,68.22
2022-09-23T21:31:33.861Z,68.22
2022-09-23T21:34:10.824Z,68.25
2022-09-23T21:36:44.299Z,68.14
2022-09-23T21:39:17.232Z,68.40
2022-09-23T21:41:51.323Z,68.45
2022-09-23T21:44:24.203Z,68.48
2022-09-23T21:46:57.561Z,68.43
2022-09-23T21:49:32.264Z,68.64
2022-09-23T21:52:05.175Z,68.31
2022-09-23T21:54:38.515Z,68.35
2022-09-23T21:57:11.492Z,68.39
2022-09-23T21:59:44.672Z,68.39
2022-09-23T22:02:17.543Z,68.51
2022-09-23T22:04:51.733Z,68.64
2022-09-23T22:07:24.991Z,68.71
2022-09-23T22:09:57.805Z,68.43
2022-09-23T22:12:30.819Z,68.33
2022-09-23T22:15:03.632Z,68.58
2022-09-23T22:17:36.519Z,68.15
2022-09-23T22:20:11.337Z,68.17
2022-09-23T22:22:44.120Z,68.00
2022-09-23T22:25:17.173Z,68.09
2022-09-23T22:28:04.252Z,68.12
2022-09-23T22:30:57.396Z,68.06
2022-09-23T22:33:30.329Z,68.18
2022-09-23T22:36:04.998Z,67.94
2022-09-23T22:38:38.166Z,68.43
2022-09-23T22:41:15.188Z,68.43
2022-09-23T22:43:48.157Z,68.28
2022-09-23T22:46:21.935Z,68.36
2022-09-23T22:48:55.214Z,68.12
2022-09-23T22:51:29.499Z,67.91
2022-09-23T22:54:02.548Z,68.05
2022-09-23T22:56:35.410Z,68.25
2022-09-23T22:59:11.215Z,68.08
2022-09-23T23:01:44.087Z,68.25
2022-09-23T23:04:17.142Z,68.43
2022-09-23T23:06:51.486Z,68.52
2022-09-23T23:09:24.575Z,68.76
2022-09-23T23:11:57.375Z,68.92
2022-09-23T23:14:31.413Z,68.48
2022-09-23T23:17:07.298Z,68.87
2022-09-23T23:19:40.543Z,68.94
2022-09-23T23:22:14.677Z,68.52
2022-09-23T23:24:47.479Z,68.55
2022-09-23T23:27:21.709Z,68.31
2022-09-23T23:29:54.537Z,68.41
2022-09-23T23:32:28.392Z,68.55
2022-09-23T23:35:01.232Z,68.27
2022-09-23T23:37:35.343Z,68.15
2022-09-23T23:40:09.465Z,68.21
2022-09-23T23:42:42.386Z,68.05
2022-09-23T23:45:16.927Z,67.97
2022-09-23T23:47:49.798Z,68.01
2022-09-23T23:50:23.075Z,68.12
2022-09-23T23:52:57.219Z,68.14
2022-09-23T23:55:30.147Z,67.97
2022-09-23T23:58:03.205Z,68.07
